sensor_id;sensor_type;location;lat;lon;timestamp;pressure;altitude;pressure_sealevel;temperature;humidity
51926;BME280;37952;51.938;15.480;2022-09-01T00:00:48;100421.09;;;17.61;53.67
51926;BME280;37952;51.938;15.480;2022-09-01T00:03:53;100421.88;;;17.58;53.73
51926;BME280;37952;51.938;15.480;2022-09-01T00:06:57;100420.34;;;17.57;53.89
51926;BME280;37952;51.938;15.480;2022-09-01T00:10:05;100418.15;;;17.58;53.86
51926;BME280;37952;51.938;15.480;2022-09-01T00:13:08;100416.15;;;17.58;53.82
51926;BME280;37952;51.938;15.480;2022-09-01T00:16:13;100414.45;;;17.55;53.91
51926;BME280;37952;51.938;15.480;2022-09-01T00:19:30;100417.26;;;17.53;54.02
51926;BME280;37952;51.938;15.480;2022-09-01T00:22:35;100413.48;;;17.49;54.09
51926;BME280;37952;51.938;15.480;2022-09-01T00:26:02;100414.42;;;17.44;54.23
51926;BME280;37952;51.938;15.480;2022-09-01T00:29:06;100415.95;;;17.43;54.22
51926;BME280;37952;51.938;15.480;2022-09-01T00:32:09;100417.63;;;17.39;54.35
51926;BME280;37952;51.938;15.480;2022-09-01T00:35:15;100419.45;;;17.39;54.37
51926;BME280;37952;51.938;15.480;2022-09-01T00:38:19;100419.48;;;17.39;54.40
51926;BME280;37952;51.938;15.480;2022-09-01T00:41:29;100416.53;;;17.37;54.41
51926;BME280;37952;51.938;15.480;2022-09-01T00:44:33;100414.95;;;17.35;54.47
51926;BME280;37952;51.938;15.480;2022-09-01T00:47:41;100410.15;;;17.33;54.57
51926;BME280;37952;51.938;15.480;2022-09-01T00:50:45;100409.66;;;17.32;54.63
51926;BME280;37952;51.938;15.480;2022-09-01T00:53:56;100404.81;;;17.32;54.68
51926;BME280;37952;51.938;15.480;2022-09-01T00:57:02;100407.98;;;17.33;54.64
51926;BME280;37952;51.938;15.480;2022-09-01T01:00:11;100411.38;;;17.28;54.66
51926;BME280;37952;51.938;15.480;2022-09-01T01:03:20;100415.52;;;17.23;54.91
51926;BME280;37952;51.938;15.480;2022-09-01T01:06:23;100406.56;;;17.19;55.00
51926;BME280;37952;51.938;15.480;2022-09-01T01:09:39;100410.20;;;17.13;55.08
51926;BME280;37952;51.938;15.480;2022-09-01T01:12:44;100411.75;;;17.16;54.99
51926;BME280;37952;51.938;15.480;2022-09-01T01:15:47;100408.95;;;17.18;55.08
51926;BME280;37952;51.938;15.480;2022-09-01T01:18:51;100405.89;;;17.16;55.10
51926;BME280;37952;51.938;15.480;2022-09-01T01:21:55;100405.14;;;17.17;55.16
51926;BME280;37952;51.938;15.480;2022-09-01T01:25:20;100405.52;;;17.16;55.22
51926;BME280;37952;51.938;15.480;2022-09-01T01:28:30;100409.02;;;17.17;55.17
51926;BME280;37952;51.938;15.480;2022-09-01T01:31:33;100414.76;;;17.17;55.18
51926;BME280;37952;51.938;15.480;2022-09-01T01:34:37;100411.83;;;17.15;55.16
51926;BME280;37952;51.938;15.480;2022-09-01T01:37:44;100409.98;;;17.11;55.20
51926;BME280;37952;51.938;15.480;2022-09-01T01:40:48;100411.87;;;17.10;55.26
51926;BME280;37952;51.938;15.480;2022-09-01T01:43:51;100414.16;;;17.10;55.19
51926;BME280;37952;51.938;15.480;2022-09-01T01:46:55;100412.80;;;17.07;55.25
51926;BME280;37952;51.938;15.480;2022-09-01T01:49:59;100407.64;;;17.02;55.36
51926;BME280;37952;51.938;15.480;2022-09-01T01:53:06;100409.55;;;17.00;55.48
51926;BME280;37952;51.938;15.480;2022-09-01T01:56:13;100405.83;;;16.98;55.54
51926;BME280;37952;51.938;15.480;2022-09-01T01:59:16;100401.67;;;16.96;55.59
51926;BME280;37952;51.938;15.480;2022-09-01T02:02:24;100402.12;;;16.95;55.55
51926;BME280;37952;51.938;15.480;2022-09-01T02:05:30;100400.13;;;16.95;55.65
51926;BME280;37952;51.938;15.480;2022-09-01T02:08:36;100403.66;;;16.91;55.62
51926;BME280;37952;51.938;15.480;2022-09-01T02:11:39;100406.10;;;16.88;55.68
51926;BME280;37952;51.938;15.480;2022-09-01T02:14:42;100407.33;;;16.88;55.70
51926;BME280;37952;51.938;15.480;2022-09-01T02:17:45;100403.98;;;16.87;55.73
51926;BME280;37952;51.938;15.480;2022-09-01T02:20:50;100405.31;;;16.84;55.77
51926;BME280;37952;51.938;15.480;2022-09-01T02:24:02;100406.02;;;16.82;55.79
51926;BME280;37952;51.938;15.480;2022-09-01T02:27:06;100399.27;;;16.74;56.00
51926;BME280;37952;51.938;15.480;2022-09-01T02:30:09;100398.48;;;16.68;56.13
51926;BME280;37952;51.938;15.480;2022-09-01T02:33:15;100397.11;;;16.63;56.22
51926;BME280;37952;51.938;15.480;2022-09-01T02:36:21;100398.63;;;16.59;56.30
51926;BME280;37952;51.938;15.480;2022-09-01T02:39:27;100398.42;;;16.55;56.38
51926;BME280;37952;51.938;15.480;2022-09-01T02:42:31;100393.96;;;16.50;56.60
51926;BME280;37952;51.938;15.480;2022-09-01T02:45:38;100394.70;;;16.47;56.65
51926;BME280;37952;51.938;15.480;2022-09-01T02:48:43;100395.60;;;16.45;56.64
51926;BME280;37952;51.938;15.480;2022-09-01T02:51:49;100395.46;;;16.39;56.82
51926;BME280;37952;51.938;15.480;2022-09-01T02:54:55;100394.73;;;16.32;56.90
51926;BME280;37952;51.938;15.480;2022-09-01T02:58:00;100397.39;;;16.28;57.13
51926;BME280;37952;51.938;15.480;2022-09-01T03:01:03;100395.45;;;16.25;57.24
51926;BME280;37952;51.938;15.480;2022-09-01T03:04:07;100397.55;;;16.23;57.22
51926;BME280;37952;51.938;15.480;2022-09-01T03:07:12;100395.45;;;16.18;57.31
51926;BME280;37952;51.938;15.480;2022-09-01T03:10:15;100395.54;;;16.12;57.39
51926;BME280;37952;51.938;15.480;2022-09-01T03:13:21;100395.14;;;16.05;57.72
51926;BME280;37952;51.938;15.480;2022-09-01T03:16:25;100399.19;;;15.98;57.87
51926;BME280;37952;51.938;15.480;2022-09-01T03:19:54;100396.14;;;15.93;57.95
51926;BME280;37952;51.938;15.480;2022-09-01T03:22:57;100394.84;;;15.89;58.18
51926;BME280;37952;51.938;15.480;2022-09-01T03:26:01;100397.78;;;15.85;58.20
51926;BME280;37952;51.938;15.480;2022-09-01T03:29:04;100397.52;;;15.79;58.21
51926;BME280;37952;51.938;15.480;2022-09-01T03:32:08;100396.36;;;15.75;58.41
51926;BME280;37952;51.938;15.480;2022-09-01T03:35:18;100394.24;;;15.73;58.47
51926;BME280;37952;51.938;15.480;2022-09-01T03:38:23;100393.36;;;15.67;58.58
51926;BME280;37952;51.938;15.480;2022-09-01T03:41:27;100390.38;;;15.65;58.52
51926;BME280;37952;51.938;15.480;2022-09-01T03:44:32;100396.52;;;15.60;58.67
51926;BME280;37952;51.938;15.480;2022-09-01T03:47:42;100398.55;;;15.54;58.85
51926;BME280;37952;51.938;15.480;2022-09-01T03:50:45;100400.57;;;15.51;58.98
51926;BME280;37952;51.938;15.480;2022-09-01T03:53:51;100406.04;;;15.49;58.90
51926;BME280;37952;51.938;15.480;2022-09-01T03:57:01;100405.89;;;15.46;59.06
51926;BME280;37952;51.938;15.480;2022-09-01T04:00:08;100406.03;;;15.41;59.10
51926;BME280;37952;51.938;15.480;2022-09-01T04:03:24;100404.98;;;15.34;59.27
51926;BME280;37952;51.938;15.480;2022-09-01T04:06:30;100403.58;;;15.26;59.32
51926;BME280;37952;51.938;15.480;2022-09-01T04:09:34;100405.52;;;15.23;59.76
51926;BME280;37952;51.938;15.480;2022-09-01T04:12:37;100406.23;;;15.18;59.61
51926;BME280;37952;51.938;15.480;2022-09-01T04:15:41;100401.30;;;15.15;59.58
51926;BME280;37952;51.938;15.480;2022-09-01T04:18:44;100402.02;;;15.12;59.74
51926;BME280;37952;51.938;15.480;2022-09-01T04:21:55;100402.16;;;15.10;59.75
51926;BME280;37952;51.938;15.480;2022-09-01T04:24:59;100402.23;;;15.09;59.92
51926;BME280;37952;51.938;15.480;2022-09-01T04:28:02;100405.74;;;15.07;59.80
51926;BME280;37952;51.938;15.480;2022-09-01T04:31:17;100404.04;;;15.03;59.92
51926;BME280;37952;51.938;15.480;2022-09-01T04:34:22;100411.30;;;15.01;59.99
51926;BME280;37952;51.938;15.480;2022-09-01T04:37:25;100410.61;;;15.01;60.12
51926;BME280;37952;51.938;15.480;2022-09-01T04:40:29;100411.58;;;15.02;60.20
51926;BME280;37952;51.938;15.480;2022-09-01T04:43:33;100412.08;;;15.05;60.17
51926;BME280;37952;51.938;15.480;2022-09-01T04:46:40;100407.28;;;15.08;59.97
51926;BME280;37952;51.938;15.480;2022-09-01T04:49:45;100408.88;;;15.10;59.91
51926;BME280;37952;51.938;15.480;2022-09-01T04:52:50;100411.20;;;15.13;60.01
51926;BME280;37952;51.938;15.480;2022-09-01T04:56:02;100413.91;;;15.07;60.29
51926;BME280;37952;51.938;15.480;2022-09-01T04:59:06;100411.69;;;15.03;60.20
51926;BME280;37952;51.938;15.480;2022-09-01T05:02:12;100408.98;;;15.04;60.16
51926;BME280;37952;51.938;15.480;2022-09-01T05:05:15;100411.64;;;15.06;60.24
51926;BME280;37952;51.938;15.480;2022-09-01T05:08:20;100414.18;;;15.11;60.18
51926;BME280;37952;51.938;15.480;2022-09-01T05:11:26;100412.13;;;15.18;60.16
51926;BME280;37952;51.938;15.480;2022-09-01T05:14:29;100411.33;;;15.24;60.02
51926;BME280;37952;51.938;15.480;2022-09-01T05:17:32;100413.56;;;15.30;59.94
51926;BME280;37952;51.938;15.480;2022-09-01T05:20:37;100411.64;;;15.40;59.93
51926;BME280;37952;51.938;15.480;2022-09-01T05:23:44;100408.51;;;15.49;59.89
51926;BME280;37952;51.938;15.480;2022-09-01T05:26:48;100410.63;;;15.57;59.86
51926;BME280;37952;51.938;15.480;2022-09-01T05:29:54;100411.05;;;15.66;59.74
51926;BME280;37952;51.938;15.480;2022-09-01T05:32:57;100411.08;;;15.76;59.76
51926;BME280;37952;51.938;15.480;2022-09-01T05:36:03;100409.77;;;15.84;59.71
51926;BME280;37952;51.938;15.480;2022-09-01T05:39:10;100414.40;;;15.89;59.58
51926;BME280;37952;51.938;15.480;2022-09-01T05:42:13;100413.11;;;15.92;59.55
51926;BME280;37952;51.938;15.480;2022-09-01T05:45:17;100412.60;;;15.94;59.58
51926;BME280;37952;51.938;15.480;2022-09-01T05:48:22;100413.44;;;15.93;59.65
51926;BME280;37952;51.938;15.480;2022-09-01T05:51:27;100415.00;;;15.91;59.74
51926;BME280;37952;51.938;15.480;2022-09-01T05:54:48;100408.66;;;15.87;59.73
51926;BME280;37952;51.938;15.480;2022-09-01T05:57:51;100411.19;;;15.87;59.77
51926;BME280;37952;51.938;15.480;2022-09-01T06:00:55;100416.14;;;15.85;59.86
51926;BME280;37952;51.938;15.480;2022-09-01T06:04:01;100419.95;;;15.83;60.12
51926;BME280;37952;51.938;15.480;2022-09-01T06:07:10;100424.10;;;15.80;60.17
51926;BME280;37952;51.938;15.480;2022-09-01T06:10:18;100429.80;;;15.80;60.31
51926;BME280;37952;51.938;15.480;2022-09-01T06:13:21;100426.44;;;15.82;60.17
51926;BME280;37952;51.938;15.480;2022-09-01T06:16:29;100423.47;;;15.86;60.13
51926;BME280;37952;51.938;15.480;2022-09-01T06:19:34;100427.08;;;15.91;60.12
51926;BME280;37952;51.938;15.480;2022-09-01T06:22:44;100426.81;;;15.94;60.18
51926;BME280;37952;51.938;15.480;2022-09-01T06:25:49;100429.77;;;15.98;60.15
51926;BME280;37952;51.938;15.480;2022-09-01T06:28:55;100431.27;;;16.02;60.11
51926;BME280;37952;51.938;15.480;2022-09-01T06:31:59;100431.90;;;16.06;60.07
51926;BME280;37952;51.938;15.480;2022-09-01T06:35:04;100435.63;;;16.08;60.17
51926;BME280;37952;51.938;15.480;2022-09-01T06:38:11;100436.64;;;16.11;60.14
51926;BME280;37952;51.938;15.480;2022-09-01T06:41:14;100438.09;;;16.14;60.21
51926;BME280;37952;51.938;15.480;2022-09-01T06:44:21;100437.79;;;16.18;60.04
51926;BME280;37952;51.938;15.480;2022-09-01T06:47:25;100443.61;;;16.23;60.01
51926;BME280;37952;51.938;15.480;2022-09-01T06:50:30;100444.22;;;16.29;59.83
51926;BME280;37952;51.938;15.480;2022-09-01T06:53:54;100446.71;;;16.32;59.85
51926;BME280;37952;51.938;15.480;2022-09-01T06:57:02;100447.66;;;16.38;59.71
51926;BME280;37952;51.938;15.480;2022-09-01T07:00:25;100450.51;;;16.43;59.67
51926;BME280;37952;51.938;15.480;2022-09-01T07:03:30;100447.44;;;16.46;59.70
51926;BME280;37952;51.938;15.480;2022-09-01T07:06:35;100450.88;;;16.48;59.65
51926;BME280;37952;51.938;15.480;2022-09-01T07:10:02;100452.25;;;16.51;59.61
51926;BME280;37952;51.938;15.480;2022-09-01T07:13:26;100450.70;;;16.55;59.63
51926;BME280;37952;51.938;15.480;2022-09-01T07:16:32;100453.74;;;16.60;59.46
51926;BME280;37952;51.938;15.480;2022-09-01T07:19:43;100450.75;;;16.64;59.48
51926;BME280;37952;51.938;15.480;2022-09-01T07:22:56;100454.18;;;16.68;59.36
51926;BME280;37952;51.938;15.480;2022-09-01T07:26:09;100454.73;;;16.70;59.35
51926;BME280;37952;51.938;15.480;2022-09-01T07:29:29;100452.40;;;16.71;59.23
51926;BME280;37952;51.938;15.480;2022-09-01T07:32:32;100448.02;;;16.72;59.22
51926;BME280;37952;51.938;15.480;2022-09-01T07:35:56;100450.98;;;16.75;59.35
51926;BME280;37952;51.938;15.480;2022-09-01T07:39:19;100447.71;;;16.78;59.34
51926;BME280;37952;51.938;15.480;2022-09-01T07:42:42;100454.26;;;16.81;59.34
51926;BME280;37952;51.938;15.480;2022-09-01T07:46:04;100450.68;;;16.84;59.33
51926;BME280;37952;51.938;15.480;2022-09-01T07:49:28;100453.02;;;16.86;59.52
51926;BME280;37952;51.938;15.480;2022-09-01T07:52:51;100456.76;;;16.89;59.48
51926;BME280;37952;51.938;15.480;2022-09-01T07:55:57;100458.48;;;16.92;59.50
51926;BME280;37952;51.938;15.480;2022-09-01T07:59:00;100457.88;;;16.92;59.67
51926;BME280;37952;51.938;15.480;2022-09-01T08:02:04;100459.16;;;16.94;59.54
51926;BME280;37952;51.938;15.480;2022-09-01T08:05:10;100462.48;;;16.98;59.66
51926;BME280;37952;51.938;15.480;2022-09-01T08:08:14;100456.81;;;17.00;59.50
51926;BME280;37952;51.938;15.480;2022-09-01T08:11:25;100459.70;;;17.01;59.42
51926;BME280;37952;51.938;15.480;2022-09-01T08:14:50;100461.58;;;17.02;59.20
51926;BME280;37952;51.938;15.480;2022-09-01T08:18:14;100461.96;;;17.02;59.13
51926;BME280;37952;51.938;15.480;2022-09-01T08:21:19;100465.44;;;17.05;59.03
51926;BME280;37952;51.938;15.480;2022-09-01T08:24:25;100468.13;;;17.11;59.03
51926;BME280;37952;51.938;15.480;2022-09-01T08:27:28;100466.13;;;17.16;58.80
51926;BME280;37952;51.938;15.480;2022-09-01T08:30:31;100470.48;;;17.19;58.70
51926;BME280;37952;51.938;15.480;2022-09-01T08:33:39;100472.84;;;17.21;58.43
51926;BME280;37952;51.938;15.480;2022-09-01T08:36:43;100477.95;;;17.24;58.31
51926;BME280;37952;51.938;15.480;2022-09-01T08:39:46;100478.61;;;17.25;58.33
51926;BME280;37952;51.938;15.480;2022-09-01T08:46:08;100477.45;;;17.36;58.21
51926;BME280;37952;51.938;15.480;2022-09-01T08:49:20;100479.25;;;17.40;58.02
51926;BME280;37952;51.938;15.480;2022-09-01T08:52:35;100485.37;;;17.43;57.91
51926;BME280;37952;51.938;15.480;2022-09-01T08:55:49;100482.69;;;17.46;57.70
51926;BME280;37952;51.938;15.480;2022-09-01T08:58:53;100481.25;;;17.49;57.88
51926;BME280;37952;51.938;15.480;2022-09-01T09:02:34;100479.81;;;17.53;57.74
51926;BME280;37952;51.938;15.480;2022-09-01T09:09:04;100475.02;;;17.55;57.48
51926;BME280;37952;51.938;15.480;2022-09-01T09:16:23;100470.50;;;17.61;57.51
51926;BME280;37952;51.938;15.480;2022-09-01T09:19:34;100473.91;;;17.67;57.41
51926;BME280;37952;51.938;15.480;2022-09-01T09:22:47;100476.11;;;17.71;57.23
51926;BME280;37952;51.938;15.480;2022-09-01T09:26:01;100472.70;;;17.73;57.26
51926;BME280;37952;51.938;15.480;2022-09-01T09:29:05;100472.48;;;17.78;57.21
51926;BME280;37952;51.938;15.480;2022-09-01T09:32:08;100473.27;;;17.80;56.50
51926;BME280;37952;51.938;15.480;2022-09-01T09:35:33;100466.02;;;17.84;56.82
51926;BME280;37952;51.938;15.480;2022-09-01T09:38:38;100463.02;;;17.90;56.77
51926;BME280;37952;51.938;15.480;2022-09-01T09:41:43;100466.09;;;18.01;56.87
51926;BME280;37952;51.938;15.480;2022-09-01T09:44:52;100460.62;;;18.09;56.20
51926;BME280;37952;51.938;15.480;2022-09-01T09:48:03;100459.73;;;18.18;56.16
51926;BME280;37952;51.938;15.480;2022-09-01T09:51:19;100459.34;;;18.25;56.13
51926;BME280;37952;51.938;15.480;2022-09-01T09:54:31;100461.00;;;18.31;55.94
51926;BME280;37952;51.938;15.480;2022-09-01T09:57:38;100454.31;;;18.43;55.81
51926;BME280;37952;51.938;15.480;2022-09-01T10:01:43;100452.02;;;18.53;55.39
51926;BME280;37952;51.938;15.480;2022-09-01T10:04:35;100451.08;;;18.59;55.18
51926;BME280;37952;51.938;15.480;2022-09-01T10:07:39;100455.59;;;18.67;55.38
51926;BME280;37952;51.938;15.480;2022-09-01T10:10:45;100448.80;;;18.77;55.29
51926;BME280;37952;51.938;15.480;2022-09-01T10:14:01;100455.17;;;18.91;54.52
51926;BME280;37952;51.938;15.480;2022-09-01T10:17:37;100458.80;;;18.97;54.11
51926;BME280;37952;51.938;15.480;2022-09-01T10:21:38;100454.43;;;18.98;53.55
51926;BME280;37952;51.938;15.480;2022-09-01T10:24:33;100453.66;;;18.98;53.90
51926;BME280;37952;51.938;15.480;2022-09-01T10:27:44;100452.45;;;19.04;53.91
51926;BME280;37952;51.938;15.480;2022-09-01T10:30:51;100451.13;;;19.08;53.26
51926;BME280;37952;51.938;15.480;2022-09-01T10:33:55;100450.44;;;19.09;53.53
51926;BME280;37952;51.938;15.480;2022-09-01T10:37:00;100446.30;;;19.12;53.55
51926;BME280;37952;51.938;15.480;2022-09-01T10:46:42;100441.74;;;18.91;54.43
51926;BME280;37952;51.938;15.480;2022-09-01T10:52:58;100443.83;;;18.77;54.73
51926;BME280;37952;51.938;15.480;2022-09-01T10:59:30;100445.33;;;18.70;54.64
51926;BME280;37952;51.938;15.480;2022-09-01T11:02:37;100443.23;;;18.69;54.51
51926;BME280;37952;51.938;15.480;2022-09-01T11:05:58;100443.48;;;18.71;54.89
51926;BME280;37952;51.938;15.480;2022-09-01T11:09:24;100443.95;;;18.70;54.94
51926;BME280;37952;51.938;15.480;2022-09-01T11:16:37;100439.91;;;18.70;53.76
51926;BME280;37952;51.938;15.480;2022-09-01T11:30:02;100428.14;;;18.94;54.15
51926;BME280;37952;51.938;15.480;2022-09-01T11:33:26;100426.99;;;18.99;54.38
51926;BME280;37952;51.938;15.480;2022-09-01T11:36:48;100433.23;;;19.03;54.14
51926;BME280;37952;51.938;15.480;2022-09-01T11:39:59;100433.03;;;19.08;54.43
51926;BME280;37952;51.938;15.480;2022-09-01T11:43:07;100434.73;;;19.11;54.23
51926;BME280;37952;51.938;15.480;2022-09-01T11:46:25;100429.39;;;19.13;53.83
51926;BME280;37952;51.938;15.480;2022-09-01T11:49:33;100437.44;;;19.19;53.57
51926;BME280;37952;51.938;15.480;2022-09-01T11:52:37;100434.45;;;19.25;53.76
51926;BME280;37952;51.938;15.480;2022-09-01T11:55:43;100434.73;;;19.26;54.12
51926;BME280;37952;51.938;15.480;2022-09-01T11:58:46;100425.94;;;19.31;52.94
51926;BME280;37952;51.938;15.480;2022-09-01T12:01:56;100416.38;;;19.36;50.32
51926;BME280;37952;51.938;15.480;2022-09-01T12:05:02;100416.58;;;19.44;51.09
51926;BME280;37952;51.938;15.480;2022-09-01T12:08:12;100418.48;;;19.51;50.25
51926;BME280;37952;51.938;15.480;2022-09-01T12:11:34;100412.98;;;19.56;50.18
51926;BME280;37952;51.938;15.480;2022-09-01T12:14:38;100412.13;;;19.64;51.15
51926;BME280;37952;51.938;15.480;2022-09-01T12:21:29;100414.24;;;19.73;51.34
51926;BME280;37952;51.938;15.480;2022-09-01T12:24:34;100412.12;;;19.70;51.41
51926;BME280;37952;51.938;15.480;2022-09-01T12:27:38;100409.25;;;19.66;51.69
51926;BME280;37952;51.938;15.480;2022-09-01T12:30:42;100408.56;;;19.62;51.53
51926;BME280;37952;51.938;15.480;2022-09-01T12:33:47;100410.53;;;19.60;51.70
51926;BME280;37952;51.938;15.480;2022-09-01T12:40:21;100406.00;;;19.54;51.11
51926;BME280;37952;51.938;15.480;2022-09-01T12:43:34;100403.65;;;19.61;51.44
51926;BME280;37952;51.938;15.480;2022-09-01T12:46:44;100408.01;;;19.74;50.80
51926;BME280;37952;51.938;15.480;2022-09-01T12:49:48;100404.44;;;19.86;49.77
51926;BME280;37952;51.938;15.480;2022-09-01T12:52:56;100399.55;;;19.99;50.58
51926;BME280;37952;51.938;15.480;2022-09-01T12:56:28;100393.93;;;20.10;50.34
51926;BME280;37952;51.938;15.480;2022-09-01T12:59:33;100396.70;;;20.21;50.18
51926;BME280;37952;51.938;15.480;2022-09-01T13:02:48;100398.68;;;20.33;48.79
51926;BME280;37952;51.938;15.480;2022-09-01T13:05:54;100397.22;;;20.49;48.82
51926;BME280;37952;51.938;15.480;2022-09-01T13:08:57;100398.27;;;20.63;47.88
51926;BME280;37952;51.938;15.480;2022-09-01T13:12:20;100399.48;;;20.75;47.34
51926;BME280;37952;51.938;15.480;2022-09-01T13:15:24;100396.95;;;20.91;47.61
51926;BME280;37952;51.938;15.480;2022-09-01T13:18:28;100400.56;;;21.02;46.86
51926;BME280;37952;51.938;15.480;2022-09-01T13:21:32;100399.57;;;21.13;46.98
51926;BME280;37952;51.938;15.480;2022-09-01T13:24:36;100400.14;;;21.22;46.58
51926;BME280;37952;51.938;15.480;2022-09-01T13:27:41;100390.84;;;21.29;46.78
51926;BME280;37952;51.938;15.480;2022-09-01T13:30:50;100391.40;;;21.37;46.99
51926;BME280;37952;51.938;15.480;2022-09-01T13:34:14;100387.39;;;21.45;46.05
51926;BME280;37952;51.938;15.480;2022-09-01T13:37:25;100390.45;;;21.56;46.65
51926;BME280;37952;51.938;15.480;2022-09-01T13:40:28;100390.16;;;21.66;46.28
51926;BME280;37952;51.938;15.480;2022-09-01T13:43:33;100390.42;;;21.77;45.88
51926;BME280;37952;51.938;15.480;2022-09-01T13:46:36;100393.73;;;21.85;45.77
51926;BME280;37952;51.938;15.480;2022-09-01T13:49:59;100391.30;;;21.92;45.91
51926;BME280;37952;51.938;15.480;2022-09-01T13:53:13;100390.48;;;22.00;45.35
51926;BME280;37952;51.938;15.480;2022-09-01T13:56:17;100387.58;;;22.10;44.47
51926;BME280;37952;51.938;15.480;2022-09-01T13:59:20;100387.96;;;22.18;44.82
51926;BME280;37952;51.938;15.480;2022-09-01T14:02:23;100383.77;;;22.27;45.45
51926;BME280;37952;51.938;15.480;2022-09-01T14:05:34;100380.94;;;22.33;45.39
51926;BME280;37952;51.938;15.480;2022-09-01T14:08:37;100378.82;;;22.38;45.02
51926;BME280;37952;51.938;15.480;2022-09-01T14:11:40;100378.13;;;22.43;43.56
51926;BME280;37952;51.938;15.480;2022-09-01T14:14:44;100381.70;;;22.47;43.90
51926;BME280;37952;51.938;15.480;2022-09-01T14:18:07;100378.91;;;22.55;43.70
51926;BME280;37952;51.938;15.480;2022-09-01T14:21:14;100381.80;;;22.63;44.18
51926;BME280;37952;51.938;15.480;2022-09-01T14:24:17;100381.48;;;22.71;44.14
51926;BME280;37952;51.938;15.480;2022-09-01T14:27:21;100382.42;;;22.80;44.20
51926;BME280;37952;51.938;15.480;2022-09-01T14:30:27;100378.77;;;22.84;43.99
51926;BME280;37952;51.938;15.480;2022-09-01T14:33:35;100376.31;;;22.85;43.94
51926;BME280;37952;51.938;15.480;2022-09-01T14:36:38;100376.86;;;22.85;43.52
51926;BME280;37952;51.938;15.480;2022-09-01T14:39:41;100377.77;;;22.86;43.31
51926;BME280;37952;51.938;15.480;2022-09-01T14:42:47;100374.92;;;22.84;43.47
51926;BME280;37952;51.938;15.480;2022-09-01T14:46:05;100372.48;;;22.87;43.06
51926;BME280;37952;51.938;15.480;2022-09-01T14:49:08;100374.29;;;22.98;42.56
51926;BME280;37952;51.938;15.480;2022-09-01T14:52:13;100370.41;;;23.09;42.53
51926;BME280;37952;51.938;15.480;2022-09-01T14:55:17;100368.52;;;23.21;42.38
51926;BME280;37952;51.938;15.480;2022-09-01T14:58:21;100365.98;;;23.31;42.95
51926;BME280;37952;51.938;15.480;2022-09-01T15:01:24;100360.74;;;23.35;42.20
51926;BME280;37952;51.938;15.480;2022-09-01T15:04:36;100358.14;;;23.25;41.68
51926;BME280;37952;51.938;15.480;2022-09-01T15:07:39;100356.77;;;23.21;42.23
51926;BME280;37952;51.938;15.480;2022-09-01T15:10:43;100355.52;;;23.23;41.57
51926;BME280;37952;51.938;15.480;2022-09-01T15:13:46;100356.02;;;23.18;41.94
51926;BME280;37952;51.938;15.480;2022-09-01T15:16:49;100358.38;;;23.09;41.88
51926;BME280;37952;51.938;15.480;2022-09-01T15:19:52;100356.13;;;22.99;41.87
51926;BME280;37952;51.938;15.480;2022-09-01T15:22:56;100358.34;;;22.90;41.90
51926;BME280;37952;51.938;15.480;2022-09-01T15:25:59;100361.12;;;22.84;41.89
51926;BME280;37952;51.938;15.480;2022-09-01T15:29:06;100359.42;;;22.85;41.44
51926;BME280;37952;51.938;15.480;2022-09-01T15:32:13;100356.42;;;22.84;41.04
51926;BME280;37952;51.938;15.480;2022-09-01T15:35:30;100354.45;;;22.79;41.24
51926;BME280;37952;51.938;15.480;2022-09-01T15:38:34;100352.27;;;22.81;40.81
51926;BME280;37952;51.938;15.480;2022-09-01T15:41:37;100354.34;;;22.91;40.62
51926;BME280;37952;51.938;15.480;2022-09-01T15:44:41;100356.48;;;23.00;40.66
51926;BME280;37952;51.938;15.480;2022-09-01T15:47:45;100345.49;;;23.08;40.74
51926;BME280;37952;51.938;15.480;2022-09-01T15:50:50;100348.94;;;23.18;40.52
51926;BME280;37952;51.938;15.480;2022-09-01T15:53:57;100348.11;;;23.23;40.52
51926;BME280;37952;51.938;15.480;2022-09-01T15:57:02;100348.10;;;23.27;40.56
51926;BME280;37952;51.938;15.480;2022-09-01T16:00:06;100346.79;;;23.30;40.63
51926;BME280;37952;51.938;15.480;2022-09-01T16:03:10;100348.86;;;23.33;40.30
51926;BME280;37952;51.938;15.480;2022-09-01T16:06:13;100346.97;;;23.34;40.40
51926;BME280;37952;51.938;15.480;2022-09-01T16:09:17;100351.16;;;23.34;40.31
51926;BME280;37952;51.938;15.480;2022-09-01T16:12:24;100351.45;;;23.34;40.42
51926;BME280;37952;51.938;15.480;2022-09-01T16:15:28;100352.60;;;23.33;40.32
51926;BME280;37952;51.938;15.480;2022-09-01T16:18:40;100352.56;;;23.32;40.25
51926;BME280;37952;51.938;15.480;2022-09-01T16:25:00;100346.73;;;23.24;40.34
51926;BME280;37952;51.938;15.480;2022-09-01T16:31:30;100349.02;;;23.04;40.00
51926;BME280;37952;51.938;15.480;2022-09-01T16:34:34;100346.19;;;23.00;39.74
51926;BME280;37952;51.938;15.480;2022-09-01T16:37:51;100341.42;;;22.94;39.86
51926;BME280;37952;51.938;15.480;2022-09-01T16:41:12;100342.80;;;22.91;39.58
51926;BME280;37952;51.938;15.480;2022-09-01T16:44:42;100342.56;;;22.84;39.76
51926;BME280;37952;51.938;15.480;2022-09-01T16:47:57;100339.70;;;22.77;39.77
51926;BME280;37952;51.938;15.480;2022-09-01T17:10:49;100341.98;;;22.15;39.89
51926;BME280;37952;51.938;15.480;2022-09-01T17:13:54;100341.05;;;22.10;40.05
51926;BME280;37952;51.938;15.480;2022-09-01T17:17:06;100345.27;;;22.06;40.11
51926;BME280;37952;51.938;15.480;2022-09-01T17:20:14;100346.02;;;22.02;40.28
51926;BME280;37952;51.938;15.480;2022-09-01T17:23:25;100349.21;;;22.00;40.34